sensor_id;sensor_type;location;lat;lon;timestamp;P1;P2;P0
74432;PMS7003;62865;53.146;23.172;2023-07-20T00:00:38;9.2;8.6;6.2
74432;PMS7003;62865;53.146;23.172;2023-07-20T00:05:56;7.8;7.2;5.6
74432;PMS7003;62865;53.146;23.172;2023-07-20T00:10:16;6.5;5.8;4.5
74432;PMS7003;62865;53.146;23.172;2023-07-20T00:15:42;7.6;7.2;5.4
74432;PMS7003;62865;53.146;23.172;2023-07-20T00:20:42;8.2;7.4;6.4
74432;PMS7003;62865;53.146;23.172;2023-07-20T00:25:58;9.8;8.6;6.2
74432;PMS7003;62865;53.146;23.172;2023-07-20T00:30:58;9;8.5;6.5
74432;PMS7003;62865;53.146;23.172;2023-07-20T00:35:22;9.7;8;6
74432;PMS7003;62865;53.146;23.172;2023-07-20T00:40:58;8.3;8;6
74432;PMS7003;62865;53.146;23.172;2023-07-20T00:45:30;9.8;9.6;7.2
74432;PMS7003;62865;53.146;23.172;2023-07-20T00:50:10;9.4;9;6.8
74432;PMS7003;62865;53.146;23.172;2023-07-20T00:55:42;10.8;9.3;7.3
74432;PMS7003;62865;53.146;23.172;2023-07-20T01:00:38;10;9.7;7
74432;PMS7003;62865;53.146;23.172;2023-07-20T01:05:51;9.2;8.4;7
74432;PMS7003;62865;53.146;23.172;2023-07-20T01:10:37;9.4;8.2;5.8
74432;PMS7003;62865;53.146;23.172;2023-07-20T01:16:00;7.6;6.8;5.4
74432;PMS7003;62865;53.146;23.172;2023-07-20T01:20:38;7.4;7.2;5.4
74432;PMS7003;62865;53.146;23.172;2023-07-20T01:26:02;9.6;8.6;6.2
74432;PMS7003;62865;53.146;23.172;2023-07-20T01:30:14;9.2;8.8;6.8
74432;PMS7003;62865;53.146;23.172;2023-07-20T01:35:58;8;8;5.5
74432;PMS7003;62865;53.146;23.172;2023-07-20T01:40:50;8.5;7.3;5.5
74432;PMS7003;62865;53.146;23.172;2023-07-20T01:45:42;8.2;7.2;6
74432;PMS7003;62865;53.146;23.172;2023-07-20T01:50:10;8.8;7.3;6
74432;PMS7003;62865;53.146;23.172;2023-07-20T01:55:10;7.6;6.6;5
74432;PMS7003;62865;53.146;23.172;2023-07-20T02:00:58;7.7;6.3;4.7
74432;PMS7003;62865;53.146;23.172;2023-07-20T02:05:34;8.5;6.5;5
74432;PMS7003;62865;53.146;23.172;2023-07-20T02:10:30;5.6;5.4;4.4
74432;PMS7003;62865;53.146;23.172;2023-07-20T02:15:58;8.8;6.8;5.5
74432;PMS7003;62865;53.146;23.172;2023-07-20T02:20:58;6.8;6;4.6
74432;PMS7003;62865;53.146;23.172;2023-07-20T02:25:34;5.5;5.5;4.5
74432;PMS7003;62865;53.146;23.172;2023-07-20T02:30:16;6.2;5.8;4.8
74432;PMS7003;62865;53.146;23.172;2023-07-20T02:35:50;5;4.6;4
74432;PMS7003;62865;53.146;23.172;2023-07-20T02:40:32;6.7;6;4
74432;PMS7003;62865;53.146;23.172;2023-07-20T02:45:28;6.8;6.3;4.8
74432;PMS7003;62865;53.146;23.172;2023-07-20T02:50:16;6;5.2;4.2
74432;PMS7003;62865;53.146;23.172;2023-07-20T02:55:58;5.4;5.4;4.2
74432;PMS7003;62865;53.146;23.172;2023-07-20T03:00:10;7.2;6;4.8
74432;PMS7003;62865;53.146;23.172;2023-07-20T03:05:10;6;5.6;4.6
74432;PMS7003;62865;53.146;23.172;2023-07-20T03:10:58;7;6.5;5.3
74432;PMS7003;62865;53.146;23.172;2023-07-20T03:15:32;6.6;6.4;5
74432;PMS7003;62865;53.146;23.172;2023-07-20T03:20:58;6.2;6;4.4
74432;PMS7003;62865;53.146;23.172;2023-07-20T03:25:16;7.6;7;5.4
74432;PMS7003;62865;53.146;23.172;2023-07-20T03:30:16;7.8;7.4;5.4
74432;PMS7003;62865;53.146;23.172;2023-07-20T03:35:24;7.5;7.5;5.8
74432;PMS7003;62865;53.146;23.172;2023-07-20T03:40:48;7.4;6.8;5.6
74432;PMS7003;62865;53.146;23.172;2023-07-20T03:50:38;7.2;7.2;6
74432;PMS7003;62865;53.146;23.172;2023-07-20T03:55:24;8.2;8.2;6
74432;PMS7003;62865;53.146;23.172;2023-07-20T04:00:10;7.4;6.6;5.2
74432;PMS7003;62865;53.146;23.172;2023-07-20T04:05:16;6.3;6;4.7
74432;PMS7003;62865;53.146;23.172;2023-07-20T04:10:58;6.7;6.7;5.3
74432;PMS7003;62865;53.146;23.172;2023-07-20T04:15:58;8.8;7.3;5.5
74432;PMS7003;62865;53.146;23.172;2023-07-20T04:20:24;8;7;5.6
74432;PMS7003;62865;53.146;23.172;2023-07-20T04:25:38;8.2;7.6;5.8
74432;PMS7003;62865;53.146;23.172;2023-07-20T04:31:09;8;7.3;5.3
74432;PMS7003;62865;53.146;23.172;2023-07-20T04:35:10;7;7;5.5
74432;PMS7003;62865;53.146;23.172;2023-07-20T04:40:16;8.8;8.3;5.8
74432;PMS7003;62865;53.146;23.172;2023-07-20T04:45:18;8.8;7.8;5.8
74432;PMS7003;62865;53.146;23.172;2023-07-20T04:50:58;7.5;7;6
74432;PMS7003;62865;53.146;23.172;2023-07-20T04:55:12;7.8;7.2;5.6
74432;PMS7003;62865;53.146;23.172;2023-07-20T05:00:10;8.8;7.6;5.4
74432;PMS7003;62865;53.146;23.172;2023-07-20T05:05:56;8.6;8;6
74432;PMS7003;62865;53.146;23.172;2023-07-20T05:10:10;8.5;7.8;5.8
74432;PMS7003;62865;53.146;23.172;2023-07-20T05:15:42;8.5;7.8;5.8
74432;PMS7003;62865;53.146;23.172;2023-07-20T05:20:42;8.5;8;5.8
74432;PMS7003;62865;53.146;23.172;2023-07-20T05:25:38;6.5;5.8;5
74432;PMS7003;62865;53.146;23.172;2023-07-20T05:30:36;7.8;6.4;5.4
74432;PMS7003;62865;53.146;23.172;2023-07-20T05:35:42;5.3;5.3;4.7
74432;PMS7003;62865;53.146;23.172;2023-07-20T05:40:44;5.5;5.5;4.5
74432;PMS7003;62865;53.146;23.172;2023-07-20T05:45:16;6.8;6.3;4.8
74432;PMS7003;62865;53.146;23.172;2023-07-20T05:50:58;6.5;6.5;5
74432;PMS7003;62865;53.146;23.172;2023-07-20T05:55:58;6.8;6.2;4.8
74432;PMS7003;62865;53.146;23.172;2023-07-20T06:00:58;6;5.6;4.2
74432;PMS7003;62865;53.146;23.172;2023-07-20T06:05:50;6;5.3;4
74432;PMS7003;62865;53.146;23.172;2023-07-20T06:10:56;6.3;5.3;4.3
74432;PMS7003;62865;53.146;23.172;2023-07-20T06:15:24;5.2;5;3.8
74432;PMS7003;62865;53.146;23.172;2023-07-20T06:20:10;5.6;5.2;3.4
74432;PMS7003;62865;53.146;23.172;2023-07-20T06:25:58;6;5.3;3.8
74432;PMS7003;62865;53.146;23.172;2023-07-20T06:30:40;5.8;5.2;4
74432;PMS7003;62865;53.146;23.172;2023-07-20T06:35:17;6.3;5.5;4.8
74432;PMS7003;62865;53.146;23.172;2023-07-20T06:40:58;7.4;6.6;4.4
74432;PMS7003;62865;53.146;23.172;2023-07-20T06:45:58;6;5.5;4
74432;PMS7003;62865;53.146;23.172;2023-07-20T06:50:10;5.6;5.2;3.6
74432;PMS7003;62865;53.146;23.172;2023-07-20T06:55:16;5.5;4.5;4.3
74432;PMS7003;62865;53.146;23.172;2023-07-20T07:00:50;5.8;5;3.5
74432;PMS7003;62865;53.146;23.172;2023-07-20T07:05:50;5;4;2.8
74432;PMS7003;62865;53.146;23.172;2023-07-20T07:10:30;4;3.6;2.6
74432;PMS7003;62865;53.146;23.172;2023-07-20T07:15:22;4.8;4.3;3.5
74432;PMS7003;62865;53.146;23.172;2023-07-20T07:20:10;4.4;3.4;2.6
74432;PMS7003;62865;53.146;23.172;2023-07-20T07:25:28;3.8;3.5;3
74432;PMS7003;62865;53.146;23.172;2023-07-20T07:30:34;7;5.7;3.7
74432;PMS7003;62865;53.146;23.172;2023-07-20T07:35:58;4;3.5;3
74432;PMS7003;62865;53.146;23.172;2023-07-20T07:40:38;5.3;4.3;4
74432;PMS7003;62865;53.146;23.172;2023-07-20T07:45:58;5.8;5.8;4.6
74432;PMS7003;62865;53.146;23.172;2023-07-20T07:50:16;6;5.8;4.3
74432;PMS7003;62865;53.146;23.172;2023-07-20T07:55:16;8.5;6.8;4.8
74432;PMS7003;62865;53.146;23.172;2023-07-20T08:00:10;5.3;4.3;3.8
74432;PMS7003;62865;53.146;23.172;2023-07-20T08:05:10;4.6;3.8;3.4
74432;PMS7003;62865;53.146;23.172;2023-07-20T08:10:30;4;4;3.3
74432;PMS7003;62865;53.146;23.172;2023-07-20T08:15:38;5.2;5;3.6
74432;PMS7003;62865;53.146;23.172;2023-07-20T08:20:38;5.6;5.4;3.6
74432;PMS7003;62865;53.146;23.172;2023-07-20T08:25:22;6.3;5.5;4
74432;PMS7003;62865;53.146;23.172;2023-07-20T08:30:10;6;5;4.4
74432;PMS7003;62865;53.146;23.172;2023-07-20T08:35:58;6.2;5.2;3.8
74432;PMS7003;62865;53.146;23.172;2023-07-20T08:40:58;6.2;5.2;4.2
74432;PMS7003;62865;53.146;23.172;2023-07-20T08:45:30;7;5.8;4.8
74432;PMS7003;62865;53.146;23.172;2023-07-20T08:50:32;7.3;6.3;4
74432;PMS7003;62865;53.146;23.172;2023-07-20T08:55:58;7;5.5;4
74432;PMS7003;62865;53.146;23.172;2023-07-20T09:00:16;6.2;5.8;4.2
74432;PMS7003;62865;53.146;23.172;2023-07-20T09:05:16;7;6.8;4.8
74432;PMS7003;62865;53.146;23.172;2023-07-20T09:10:40;7.8;7;5.2
74432;PMS7003;62865;53.146;23.172;2023-07-20T09:15:56;7.3;6.5;5.3
74432;PMS7003;62865;53.146;23.172;2023-07-20T09:20:48;9.3;8.5;6.3
74432;PMS7003;62865;53.146;23.172;2023-07-20T09:25:22;9;7.4;5.6
74432;PMS7003;62865;53.146;23.172;2023-07-20T09:30:56;7.4;6.8;5.2
74432;PMS7003;62865;53.146;23.172;2023-07-20T09:35:30;7.8;7.3;5.3
74432;PMS7003;62865;53.146;23.172;2023-07-20T09:40:10;8.8;7.3;5.5
74432;PMS7003;62865;53.146;23.172;2023-07-20T09:45:18;8.6;7.2;5.6
74432;PMS7003;62865;53.146;23.172;2023-07-20T09:50:39;9.7;8.3;6
74432;PMS7003;62865;53.146;23.172;2023-07-20T09:55:46;9;8;5.8
74432;PMS7003;62865;53.146;23.172;2023-07-20T10:00:12;9;8.6;6
74432;PMS7003;62865;53.146;23.172;2023-07-20T10:06:00;7.8;7.4;5.8
74432;PMS7003;62865;53.146;23.172;2023-07-20T10:10:31;9.6;7.6;5.6
74432;PMS7003;62865;53.146;23.172;2023-07-20T10:15:59;9;8.3;5.8
74432;PMS7003;62865;53.146;23.172;2023-07-20T10:20:35;10.3;9;7
74432;PMS7003;62865;53.146;23.172;2023-07-20T10:25:58;10.6;10.2;7.2
74432;PMS7003;62865;53.146;23.172;2023-07-20T10:30:58;9.6;9.4;7.8
74432;PMS7003;62865;53.146;23.172;2023-07-20T10:36:00;10.2;9.6;7.8
74432;PMS7003;62865;53.146;23.172;2023-07-20T10:40:26;9.3;8.8;7
74432;PMS7003;62865;53.146;23.172;2023-07-20T10:45:16;12;11.2;8
74432;PMS7003;62865;53.146;23.172;2023-07-20T10:51:14;11.3;11;7.3
74432;PMS7003;62865;53.146;23.172;2023-07-20T10:55:40;12.3;11.3;8
74432;PMS7003;62865;53.146;23.172;2023-07-20T11:00:10;9.3;8.8;7
74432;PMS7003;62865;53.146;23.172;2023-07-20T11:05:44;11.8;10.8;6.8
74432;PMS7003;62865;53.146;23.172;2023-07-20T11:11:20;10.5;9.3;7
74432;PMS7003;62865;53.146;23.172;2023-07-20T11:15:34;10.8;10.5;7.3
74432;PMS7003;62865;53.146;23.172;2023-07-20T11:20:42;9.5;9.3;7.3
74432;PMS7003;62865;53.146;23.172;2023-07-20T11:25:58;9.7;9;6
74432;PMS7003;62865;53.146;23.172;2023-07-20T11:30:52;8.3;7.3;6
74432;PMS7003;62865;53.146;23.172;2023-07-20T11:35:50;8.4;7.4;5.4
74432;PMS7003;62865;53.146;23.172;2023-07-20T11:40:16;8.4;7.6;5.4
74432;PMS7003;62865;53.146;23.172;2023-07-20T11:45:10;8.3;8;5.8
74432;PMS7003;62865;53.146;23.172;2023-07-20T11:50:28;8.7;7.7;6
74432;PMS7003;62865;53.146;23.172;2023-07-20T11:55:10;8;8;5.7
74432;PMS7003;62865;53.146;23.172;2023-07-20T12:00:58;9.8;9.2;7
74432;PMS7003;62865;53.146;23.172;2023-07-20T12:05:38;7.7;7;5.7
74432;PMS7003;62865;53.146;23.172;2023-07-20T12:10:58;8;8;5.8
74432;PMS7003;62865;53.146;23.172;2023-07-20T12:15:16;9.8;8.5;6
74432;PMS7003;62865;53.146;23.172;2023-07-20T12:20:24;11;10.5;7
74432;PMS7003;62865;53.146;23.172;2023-07-20T12:25:10;8;7.8;6
74432;PMS7003;62865;53.146;23.172;2023-07-20T12:30:34;7.8;7.4;5.8
74432;PMS7003;62865;53.146;23.172;2023-07-20T12:35:14;7.6;7.4;5.8
74432;PMS7003;62865;53.146;23.172;2023-07-20T12:40:36;8;7.8;5.5
74432;PMS7003;62865;53.146;23.172;2023-07-20T12:45:38;8;8;5.8
74432;PMS7003;62865;53.146;23.172;2023-07-20T12:50:22;7.3;7;4.7
74432;PMS7003;62865;53.146;23.172;2023-07-20T12:55:16;7;6.7;4.3
74432;PMS7003;62865;53.146;23.172;2023-07-20T13:00:58;8.3;6;4.3
74432;PMS7003;62865;53.146;23.172;2023-07-20T13:05:59;7.3;6.7;5
74432;PMS7003;62865;53.146;23.172;2023-07-20T13:10:16;6.6;6.4;5
74432;PMS7003;62865;53.146;23.172;2023-07-20T13:15:39;6.5;6;4.8
74432;PMS7003;62865;53.146;23.172;2023-07-20T13:20:58;7;6.2;5.2
74432;PMS7003;62865;53.146;23.172;2023-07-20T13:25:30;5.8;5;3.8
74432;PMS7003;62865;53.146;23.172;2023-07-20T13:30:22;4.6;4.4;3.6
74432;PMS7003;62865;53.146;23.172;2023-07-20T13:35:42;5.3;5;4
74432;PMS7003;62865;53.146;23.172;2023-07-20T13:40:56;5.5;5;4
74432;PMS7003;62865;53.146;23.172;2023-07-20T13:45:58;4;4;3
74432;PMS7003;62865;53.146;23.172;2023-07-20T13:50:22;4.4;4.4;3.2
74432;PMS7003;62865;53.146;23.172;2023-07-20T13:55:58;5.2;3.8;3.2
74432;PMS7003;62865;53.146;23.172;2023-07-20T14:00:16;5.3;4.5;3.3
74432;PMS7003;62865;53.146;23.172;2023-07-20T14:05:16;5.4;4.8;3.6
74432;PMS7003;62865;53.146;23.172;2023-07-20T14:10:42;5.2;4.8;3.6
74432;PMS7003;62865;53.146;23.172;2023-07-20T14:15:58;5.4;5;3.6
74432;PMS7003;62865;53.146;23.172;2023-07-20T14:20:50;5.8;5;4
74432;PMS7003;62865;53.146;23.172;2023-07-20T14:25:18;6.3;5;4
74432;PMS7003;62865;53.146;23.172;2023-07-20T14:30:58;7;5.8;4
74432;PMS7003;62865;53.146;23.172;2023-07-20T14:35:30;5.8;5.6;4.4
74432;PMS7003;62865;53.146;23.172;2023-07-20T14:40:58;5.8;5.4;4.2
74432;PMS7003;62865;53.146;23.172;2023-07-20T14:45:10;6.4;5.8;4.4
74432;PMS7003;62865;53.146;23.172;2023-07-20T14:50:58;6.3;5.5;4.8
74432;PMS7003;62865;53.146;23.172;2023-07-20T14:55:50;5.5;4.8;4
74432;PMS7003;62865;53.146;23.172;2023-07-20T15:00:36;5.8;4.8;4
74432;PMS7003;62865;53.146;23.172;2023-07-20T15:05:10;5.5;5;4
74432;PMS7003;62865;53.146;23.172;2023-07-20T15:10:36;5.8;5;3.6
74432;PMS7003;62865;53.146;23.172;2023-07-20T15:15:50;7.6;6.2;4.8
74432;PMS7003;62865;53.146;23.172;2023-07-20T15:20:18;6.6;6;4.4
74432;PMS7003;62865;53.146;23.172;2023-07-20T15:25:58;6.8;6.8;5.2
74432;PMS7003;62865;53.146;23.172;2023-07-20T15:30:42;6.4;5.8;5
74432;PMS7003;62865;53.146;23.172;2023-07-20T15:35:58;5.8;5.6;3.6
74432;PMS7003;62865;53.146;23.172;2023-07-20T15:40:10;6.2;5.4;3.8
74432;PMS7003;62865;53.146;23.172;2023-07-20T15:45:10;4.6;4.2;3.2
74432;PMS7003;62865;53.146;23.172;2023-07-20T15:50:58;3.8;3;2.4
74432;PMS7003;62865;53.146;23.172;2023-07-20T15:55:52;4.3;4.3;3.3
74432;PMS7003;62865;53.146;23.172;2023-07-20T16:00:14;5.8;5;3.8
74432;PMS7003;62865;53.146;23.172;2023-07-20T16:05:10;4.2;3.8;2.8
74432;PMS7003;62865;53.146;23.172;2023-07-20T16:10:10;4.6;4.2;3
74432;PMS7003;62865;53.146;23.172;2023-07-20T16:15:16;3.8;3.4;2.8
74432;PMS7003;62865;53.146;23.172;2023-07-20T16:20:11;3.2;3.2;2
74432;PMS7003;62865;53.146;23.172;2023-07-20T16:25:58;3.4;3;2.2
74432;PMS7003;62865;53.146;23.172;2023-07-20T16:30:38;2.4;2;1.6
74432;PMS7003;62865;53.146;23.172;2023-07-20T16:35:58;1.4;1.4;0.8
74432;PMS7003;62865;53.146;23.172;2023-07-20T16:40:16;3;2.4;1.8
74432;PMS7003;62865;53.146;23.172;2023-07-20T16:45:10;1.6;1.6;1.4
74432;PMS7003;62865;53.146;23.172;2023-07-20T16:50:16;2.4;1.4;0.6
74432;PMS7003;62865;53.146;23.172;2023-07-20T16:55:10;2.2;1.8;1.2
74432;PMS7003;62865;53.146;23.172;2023-07-20T17:00:30;1.5;1.5;1.5
74432;PMS7003;62865;53.146;23.172;2023-07-20T17:05:38;2;1.6;1.4
74432;PMS7003;62865;53.146;23.172;2023-07-20T17:10:38;2.2;1.6;0.8
74432;PMS7003;62865;53.146;23.172;2023-07-20T17:15:10;1.8;1.8;1
74432;PMS7003;62865;53.146;23.172;2023-07-20T17:20:10;2.3;1.8;1.8
74432;PMS7003;62865;53.146;23.172;2023-07-20T17:25:58;1.8;1.6;1.2
74432;PMS7003;62865;53.146;23.172;2023-07-20T17:30:58;2;0.8;0.5
74432;PMS7003;62865;53.146;23.172;2023-07-20T17:35:30;1.8;1.6;1
74432;PMS7003;62865;53.146;23.172;2023-07-20T17:40:38;3;2.8;2.4
74432;PMS7003;62865;53.146;23.172;2023-07-20T17:45:38;1.6;1.4;1
74432;PMS7003;62865;53.146;23.172;2023-07-20T17:50:10;1.8;1;0.6
74432;PMS7003;62865;53.146;23.172;2023-07-20T17:55:32;1;1;0.5
74432;PMS7003;62865;53.146;23.172;2023-07-20T18:00:42;1.8;1.5;0.5
74432;PMS7003;62865;53.146;23.172;2023-07-20T18:06:02;1;1;0.8
74432;PMS7003;62865;53.146;23.172;2023-07-20T18:15:16;1;0.8;0.6
74432;PMS7003;62865;53.146;23.172;2023-07-20T18:20:58;1.7;1.7;0.7
74432;PMS7003;62865;53.146;23.172;2023-07-20T18:25:10;1.3;1;0.8
74432;PMS7003;62865;53.146;23.172;2023-07-20T18:30:10;2;1.4;1
74432;PMS7003;62865;53.146;23.172;2023-07-20T18:35:42;2.5;2;1.5
74432;PMS7003;62865;53.146;23.172;2023-07-20T18:40:38;3.5;2.3;1.8
74432;PMS7003;62865;53.146;23.172;2023-07-20T18:45:51;2.8;2.6;2
74432;PMS7003;62865;53.146;23.172;2023-07-20T18:50:42;2;2;1.8
74432;PMS7003;62865;53.146;23.172;2023-07-20T18:55:10;3.6;3.2;2.4
74432;PMS7003;62865;53.146;23.172;2023-07-20T19:00:16;3;2.6;1.8
74432;PMS7003;62865;53.146;23.172;2023-07-20T19:05:58;3;2.8;1.8
74432;PMS7003;62865;53.146;23.172;2023-07-20T19:10:36;3.3;2.3;1.3
74432;PMS7003;62865;53.146;23.172;2023-07-20T19:15:30;3.5;3.3;2
74432;PMS7003;62865;53.146;23.172;2023-07-20T19:20:58;3;2.6;2.2
74432;PMS7003;62865;53.146;23.172;2023-07-20T19:25:58;3.6;3.4;2.6
74432;PMS7003;62865;53.146;23.172;2023-07-20T19:30:34;3.6;3.2;3
74432;PMS7003;62865;53.146;23.172;2023-07-20T19:35:42;4.3;3.5;2.5
74432;PMS7003;62865;53.146;23.172;2023-07-20T19:40:18;3.8;2.8;2.3
74432;PMS7003;62865;53.146;23.172;2023-07-20T19:45:50;3;2.6;2.4
74432;PMS7003;62865;53.146;23.172;2023-07-20T19:50:30;3.3;2.8;1.8
74432;PMS7003;62865;53.146;23.172;2023-07-20T19:55:10;3.5;3.5;3
74432;PMS7003;62865;53.146;23.172;2023-07-20T20:00:58;3;3;2.2
74432;PMS7003;62865;53.146;23.172;2023-07-20T20:05:16;4;2.8;2.2
74432;PMS7003;62865;53.146;23.172;2023-07-20T20:10:10;3;2.8;2.2
74432;PMS7003;62865;53.146;23.172;2023-07-20T20:15:58;3.2;3.2;2.4
74432;PMS7003;62865;53.146;23.172;2023-07-20T20:20:50;3.4;3.2;2.4
74432;PMS7003;62865;53.146;23.172;2023-07-20T20:25:24;3;3;2.4
74432;PMS7003;62865;53.146;23.172;2023-07-20T20:30:58;3;3;2.4
74432;PMS7003;62865;53.146;23.172;2023-07-20T20:35:10;3.2;3.2;2.2
74432;PMS7003;62865;53.146;23.172;2023-07-20T20:40:16;4;3.2;2.8
74432;PMS7003;62865;53.146;23.172;2023-07-20T20:45:34;4.8;4;3.6
74432;PMS7003;62865;53.146;23.172;2023-07-20T20:50:58;3.8;3.4;2.8
74432;PMS7003;62865;53.146;23.172;2023-07-20T20:55:38;5;3.8;2.8
74432;PMS7003;62865;53.146;23.172;2023-07-20T21:00:58;5.2;4.6;3.2
74432;PMS7003;62865;53.146;23.172;2023-07-20T21:05:22;4;4;2.7
74432;PMS7003;62865;53.146;23.172;2023-07-20T21:10:17;4.3;3.8;3
74432;PMS7003;62865;53.146;23.172;2023-07-20T21:15:10;5.3;3.8;2.8
74432;PMS7003;62865;53.146;23.172;2023-07-20T21:20:34;6.5;4;2.8
74432;PMS7003;62865;53.146;23.172;2023-07-20T21:25:30;6.3;5.3;3.8
74432;PMS7003;62865;53.146;23.172;2023-07-20T21:30:38;6.6;5.8;4
74432;PMS7003;62865;53.146;23.172;2023-07-20T21:35:39;7;6.3;4.5
74432;PMS7003;62865;53.146;23.172;2023-07-20T21:40:22;6.5;6.3;4.8
74432;PMS7003;62865;53.146;23.172;2023-07-20T21:45:10;6.4;5.2;4
74432;PMS7003;62865;53.146;23.172;2023-07-20T21:50:56;8.3;7.3;5.3
74432;PMS7003;62865;53.146;23.172;2023-07-20T21:55:37;6;5.8;4.8
74432;PMS7003;62865;53.146;23.172;2023-07-20T22:00:30;6.5;6.3;4.5
74432;PMS7003;62865;53.146;23.172;2023-07-20T22:05:40;6.5;5.5;4
74432;PMS7003;62865;53.146;23.172;2023-07-20T22:10:38;5.5;5;4.3
74432;PMS7003;62865;53.146;23.172;2023-07-20T22:15:30;5.8;5.4;4.2
74432;PMS7003;62865;53.146;23.172;2023-07-20T22:20:12;8.6;7.2;5.4
74432;PMS7003;62865;53.146;23.172;2023-07-20T22:25:42;7.2;6.2;4.8
74432;PMS7003;62865;53.146;23.172;2023-07-20T22:30:59;7.2;6.6;4.6
74432;PMS7003;62865;53.146;23.172;2023-07-20T22:35:58;6.7;6.3;4.7
74432;PMS7003;62865;53.146;23.172;2023-07-20T22:40:22;7;6.3;5
74432;PMS7003;62865;53.146;23.172;2023-07-20T22:45:58;6.4;5.6;4.2
74432;PMS7003;62865;53.146;23.172;2023-07-20T22:50:16;7;6.6;4.8
74432;PMS7003;62865;53.146;23.172;2023-07-20T22:55:58;7.2;6.2;4.8
74432;PMS7003;62865;53.146;23.172;2023-07-20T23:00:34;6.6;6.2;4.4
74432;PMS7003;62865;53.146;23.172;2023-07-20T23:05:58;8;6.5;5
74432;PMS7003;62865;53.146;23.172;2023-07-20T23:10:50;7;6.6;5.2
74432;PMS7003;62865;53.146;23.172;2023-07-20T23:15:58;6.8;6.3;4.8
74432;PMS7003;62865;53.146;23.172;2023-07-20T23:20:16;7.6;7.2;5.4
74432;PMS7003;62865;53.146;23.172;2023-07-20T23:25:17;7.2;6.4;5
74432;PMS7003;62865;53.146;23.172;2023-07-20T23:30:59;7;6.8;5
74432;PMS7003;62865;53.146;23.172;2023-07-20T23:35:10;8.6;7.8;5.8
74432;PMS7003;62865;53.146;23.172;2023-07-20T23:40:30;9;8;6
74432;PMS7003;62865;53.146;23.172;2023-07-20T23:45:38;9.8;9;6.5
74432;PMS7003;62865;53.146;23.172;2023-07-20T23:50:42;9.8;9.2;6.8
74432;PMS7003;62865;53.146;23.172;2023-07-20T23:55:11;9.8;9;7
